createdAt,value
2023-03-07T00:00:50.441Z,93.06
2023-03-07T00:03:16.788Z,92.70
2023-03-07T00:05:43.154Z,93.42
2023-03-07T00:08:09.449Z,93.31
2023-03-07T00:10:35.773Z,93.25
2023-03-07T00:13:02.106Z,93.24
2023-03-07T00:15:28.425Z,93.36
2023-03-07T00:17:54.784Z,93.48
2023-03-07T00:20:21.146Z,93.53
2023-03-07T00:22:47.491Z,93.88
2023-03-07T00:25:15.060Z,94.11
2023-03-07T00:27:41.418Z,93.65
2023-03-07T00:30:07.769Z,93.86
2023-03-07T00:32:34.189Z,93.62
2023-03-07T00:35:00.512Z,94.56
2023-03-07T00:37:26.819Z,94.27
2023-03-07T00:39:53.165Z,93.97
2023-03-07T00:42:19.505Z,93.67
2023-03-07T00:44:45.810Z,92.86
2023-03-07T00:47:12.604Z,92.69
2023-03-07T00:49:38.902Z,92.01
2023-03-07T00:52:05.226Z,92.03
2023-03-07T00:54:31.525Z,92.27
2023-03-07T00:56:57.837Z,92.08
2023-03-07T00:59:24.136Z,92.46
2023-03-07T01:01:50.658Z,92.01
2023-03-07T01:04:17.018Z,92.65
2023-03-07T01:06:43.350Z,91.66
2023-03-07T01:09:09.717Z,92.19
2023-03-07T01:11:36.025Z,91.89
2023-03-07T01:14:02.413Z,91.50
2023-03-07T01:16:28.840Z,91.43
2023-03-07T01:18:55.231Z,91.46
2023-03-07T01:21:21.555Z,90.73
2023-03-07T01:23:47.854Z,91.31
2023-03-07T01:26:14.193Z,91.78
2023-03-07T01:28:40.643Z,91.51
2023-03-07T01:31:06.945Z,92.96
2023-03-07T01:33:33.254Z,93.66
2023-03-07T01:35:59.677Z,94.74
2023-03-07T01:38:26.075Z,94.84
2023-03-07T01:40:52.379Z,95.04
2023-03-07T01:43:18.689Z,95.42
2023-03-07T01:45:45.016Z,95.96
2023-03-07T01:48:11.354Z,96.24
2023-03-07T01:50:37.665Z,95.65
2023-03-07T01:53:04.027Z,95.72
2023-03-07T01:55:30.343Z,95.81
2023-03-07T01:57:56.678Z,96.18
2023-03-07T02:00:28.803Z,96.55
2023-03-07T02:02:55.178Z,96.21
2023-03-07T02:05:21.501Z,96.02
2023-03-07T02:07:47.821Z,95.69
2023-03-07T02:10:14.172Z,95.48
2023-03-07T02:12:40.551Z,95.47
2023-03-07T02:15:06.907Z,95.97
2023-03-07T02:17:33.238Z,95.27
2023-03-07T02:19:59.678Z,95.15
2023-03-07T02:22:26.003Z,95.52
2023-03-07T02:24:52.364Z,94.81
2023-03-07T02:27:18.669Z,94.32
2023-03-07T02:29:45.047Z,93.27
2023-03-07T02:32:11.380Z,92.67
2023-03-07T02:34:37.728Z,92.61
2023-03-07T02:37:05.040Z,91.71
2023-03-07T02:39:31.432Z,90.77
2023-03-07T02:41:57.783Z,90.97
2023-03-07T02:44:24.105Z,90.79
2023-03-07T02:46:50.442Z,90.72
2023-03-07T02:49:18.119Z,89.46
2023-03-07T02:51:44.507Z,89.59
2023-03-07T02:54:10.853Z,88.48
2023-03-07T02:56:37.196Z,88.25
2023-03-07T02:59:03.562Z,88.31
2023-03-07T03:01:29.957Z,88.26
2023-03-07T03:03:56.305Z,87.89
2023-03-07T03:06:22.641Z,88.20
2023-03-07T03:08:49.046Z,88.12
2023-03-07T03:11:15.355Z,87.68
2023-03-07T03:13:41.680Z,88.04
2023-03-07T03:16:08.034Z,87.91
2023-03-07T03:18:34.423Z,88.13
2023-03-07T03:21:00.727Z,87.29
2023-03-07T03:23:27.067Z,87.19
2023-03-07T03:25:53.396Z,87.43
2023-03-07T03:28:19.702Z,88.50
2023-03-07T03:30:46.036Z,88.03
2023-03-07T03:33:12.343Z,87.65
2023-03-07T03:35:38.683Z,87.47
2023-03-07T03:38:05.716Z,86.97
2023-03-07T03:40:32.027Z,86.46
2023-03-07T03:42:58.358Z,85.84
2023-03-07T03:45:24.655Z,85.70
2023-03-07T03:47:51.214Z,85.27
2023-03-07T03:50:17.629Z,84.35
2023-03-07T03:52:45.360Z,84.10
2023-03-07T03:55:11.759Z,84.12
2023-03-07T03:57:38.459Z,83.27
2023-03-07T04:00:05.620Z,83.68
2023-03-07T04:02:33.462Z,84.11
2023-03-07T04:04:59.834Z,83.53
2023-03-07T04:07:29.203Z,83.48
2023-03-07T04:09:55.527Z,82.79
2023-03-07T04:12:21.865Z,83.30
2023-03-07T04:14:48.187Z,82.94
2023-03-07T04:17:14.500Z,83.22
2023-03-07T04:19:40.832Z,82.71
2023-03-07T04:22:07.161Z,82.99
2023-03-07T04:24:33.501Z,83.06
2023-03-07T04:26:59.851Z,83.18
2023-03-07T04:29:26.793Z,84.11
2023-03-07T04:31:53.170Z,85.48
2023-03-07T04:34:19.486Z,85.89
2023-03-07T04:36:45.811Z,86.38
2023-03-07T04:39:12.129Z,87.33
2023-03-07T04:41:38.495Z,88.30
2023-03-07T04:44:04.804Z,87.63
2023-03-07T04:46:31.143Z,87.10
2023-03-07T04:48:57.463Z,86.93
2023-03-07T04:51:23.805Z,86.98
2023-03-07T04:53:50.229Z,87.37
2023-03-07T04:56:16.586Z,86.42
2023-03-07T04:58:42.893Z,86.35
2023-03-07T05:01:09.831Z,86.33
2023-03-07T05:03:36.268Z,85.94
2023-03-07T05:06:02.658Z,86.55
2023-03-07T05:08:29.053Z,85.51
2023-03-07T05:10:55.643Z,85.53
2023-03-07T05:13:21.972Z,86.03
2023-03-07T05:15:48.328Z,85.55
2023-03-07T05:18:14.647Z,85.16
2023-03-07T05:20:43.273Z,84.06
2023-03-07T05:23:09.598Z,84.12
2023-03-07T05:25:35.894Z,83.29
2023-03-07T05:28:02.293Z,82.59
2023-03-07T05:30:28.637Z,82.04
2023-03-07T05:32:54.961Z,82.67
2023-03-07T05:35:24.518Z,82.35
2023-03-07T05:37:50.947Z,82.27
2023-03-07T05:40:17.273Z,82.50
2023-03-07T05:42:43.601Z,82.56
2023-03-07T05:45:10.001Z,82.08
2023-03-07T05:47:36.346Z,81.77
2023-03-07T05:50:02.687Z,81.34
2023-03-07T05:52:29.191Z,81.28
2023-03-07T05:54:55.510Z,80.90
2023-03-07T05:57:21.829Z,81.85
2023-03-07T05:59:48.202Z,81.71
2023-03-07T06:02:14.618Z,81.27
2023-03-07T06:04:40.955Z,80.45
2023-03-07T06:07:07.306Z,79.87
2023-03-07T06:09:33.660Z,79.40
2023-03-07T06:12:00.062Z,79.66
2023-03-07T06:14:26.407Z,78.53
2023-03-07T06:16:52.718Z,79.57
2023-03-07T06:19:19.042Z,79.28
2023-03-07T06:21:45.359Z,79.05
2023-03-07T06:24:11.679Z,78.09
2023-03-07T06:26:38.007Z,77.92
2023-03-07T06:29:04.306Z,77.54
2023-03-07T06:31:30.710Z,78.37
2023-03-07T06:33:57.728Z,77.14
2023-03-07T06:36:24.176Z,76.45
2023-03-07T06:38:50.515Z,76.14
2023-03-07T06:41:16.936Z,76.45
2023-03-07T06:43:43.326Z,76.91
2023-03-07T06:46:09.700Z,76.42
2023-03-07T06:48:36.089Z,77.12
2023-03-07T06:51:02.406Z,77.54
2023-03-07T06:53:28.735Z,77.44
2023-03-07T06:55:55.200Z,78.99
2023-03-07T06:58:21.526Z,77.85
2023-03-07T07:00:47.891Z,78.21
2023-03-07T07:03:14.349Z,79.05
2023-03-07T07:05:40.777Z,79.42
2023-03-07T07:08:07.088Z,79.50
2023-03-07T07:10:33.463Z,80.60
2023-03-07T07:12:59.854Z,79.79
2023-03-07T07:15:26.562Z,79.81
2023-03-07T07:17:52.896Z,79.83
2023-03-07T07:20:19.254Z,79.45
2023-03-07T07:22:45.564Z,79.29
2023-03-07T07:25:11.887Z,79.27
2023-03-07T07:27:38.219Z,79.23
2023-03-07T07:30:04.524Z,78.65
2023-03-07T07:32:30.971Z,79.91
2023-03-07T07:34:57.834Z,80.08
2023-03-07T07:37:24.154Z,80.10
2023-03-07T07:39:50.494Z,80.17
2023-03-07T07:42:16.817Z,78.76
2023-03-07T07:44:43.760Z,79.80
2023-03-07T07:47:10.100Z,80.79
2023-03-07T07:49:36.466Z,81.61
2023-03-07T07:52:02.786Z,81.48
2023-03-07T07:54:29.301Z,80.32
2023-03-07T07:56:57.584Z,81.21
2023-03-07T07:59:23.912Z,82.53
2023-03-07T08:01:50.271Z,83.79
2023-03-07T08:04:16.594Z,83.56
2023-03-07T08:06:44.382Z,83.82
2023-03-07T08:09:10.686Z,83.89
2023-03-07T08:11:37.020Z,85.31
2023-03-07T08:14:03.477Z,84.62
2023-03-07T08:16:29.857Z,85.50
2023-03-07T08:18:56.335Z,85.56
2023-03-07T08:21:22.673Z,86.32
2023-03-07T08:23:49.086Z,83.93
2023-03-07T08:26:15.515Z,84.33
2023-03-07T08:28:41.964Z,85.44
2023-03-07T08:31:08.391Z,85.38
2023-03-07T08:33:34.718Z,84.88
2023-03-07T08:36:01.083Z,84.63
2023-03-07T08:38:27.994Z,84.42
2023-03-07T08:40:54.349Z,84.32
2023-03-07T08:43:20.913Z,83.34
2023-03-07T08:45:47.222Z,82.20
2023-03-07T08:48:13.584Z,83.21
2023-03-07T08:50:39.929Z,80.98
2023-03-07T08:53:06.253Z,81.16
2023-03-07T08:55:32.590Z,79.86
2023-03-07T08:57:58.909Z,78.60
2023-03-07T09:00:25.244Z,78.98
2023-03-07T09:02:51.691Z,79.07
2023-03-07T09:05:18.093Z,78.21
2023-03-07T09:07:44.524Z,76.81
2023-03-07T09:10:11.819Z,76.98
2023-03-07T09:12:38.182Z,75.64
2023-03-07T09:15:04.522Z,74.42
2023-03-07T09:17:30.872Z,75.38
2023-03-07T09:19:57.202Z,73.96
2023-03-07T09:22:23.529Z,74.34
2023-03-07T09:24:49.853Z,73.32
2023-03-07T09:27:16.177Z,72.47
2023-03-07T09:29:42.494Z,72.92
2023-03-07T09:32:09.204Z,72.55
2023-03-07T09:34:35.514Z,72.90
2023-03-07T09:37:01.859Z,73.87
2023-03-07T09:39:28.201Z,73.25
2023-03-07T09:41:55.035Z,73.19
2023-03-07T09:44:21.379Z,74.77
2023-03-07T09:46:47.699Z,74.03
2023-03-07T09:49:14.032Z,74.06
2023-03-07T09:51:40.417Z,71.69
2023-03-07T09:54:06.911Z,72.33
2023-03-07T09:56:33.234Z,72.41
2023-03-07T09:58:59.616Z,71.30
2023-03-07T10:01:25.942Z,71.47
2023-03-07T10:03:52.428Z,71.47
2023-03-07T10:06:18.817Z,71.39
2023-03-07T10:08:45.157Z,70.04
2023-03-07T10:11:11.481Z,70.14
2023-03-07T10:13:37.827Z,70.36
2023-03-07T10:16:04.161Z,70.00
2023-03-07T10:18:30.464Z,70.50
2023-03-07T10:20:57.044Z,69.81
2023-03-07T10:23:23.382Z,69.10
2023-03-07T10:25:49.698Z,69.70
2023-03-07T10:28:16.012Z,70.09
2023-03-07T10:30:42.348Z,68.88
2023-03-07T10:33:08.684Z,70.14
2023-03-07T10:35:38.179Z,69.30
2023-03-07T10:38:04.522Z,69.94
2023-03-07T10:40:30.837Z,69.05
2023-03-07T10:42:57.143Z,68.18
2023-03-07T10:45:23.633Z,68.94
2023-03-07T10:47:49.970Z,68.42
2023-03-07T10:50:16.287Z,67.97
2023-03-07T10:52:42.602Z,67.07
2023-03-07T10:55:08.907Z,67.90
2023-03-07T10:57:35.221Z,66.18
2023-03-07T11:00:01.530Z,64.52
2023-03-07T11:02:27.863Z,66.07
2023-03-07T11:04:54.258Z,65.47
2023-03-07T11:07:20.649Z,64.22
2023-03-07T11:09:46.987Z,63.50
2023-03-07T11:12:13.299Z,63.10
2023-03-07T11:14:39.665Z,62.28
2023-03-07T11:17:05.991Z,62.19
2023-03-07T11:19:32.355Z,60.43
2023-03-07T11:21:59.811Z,61.71
2023-03-07T11:24:26.346Z,60.21
2023-03-07T11:26:52.750Z,60.21
2023-03-07T11:29:19.094Z,59.20
2023-03-07T11:31:45.413Z,60.15
2023-03-07T11:34:11.742Z,59.98
2023-03-07T11:36:38.081Z,59.33
2023-03-07T11:39:04.410Z,60.82
2023-03-07T11:41:30.871Z,59.93
2023-03-07T11:43:57.243Z,60.00
2023-03-07T11:46:23.728Z,60.09
2023-03-07T11:48:50.107Z,60.23
2023-03-07T11:51:16.437Z,59.84
2023-03-07T11:53:43.056Z,61.36
2023-03-07T11:56:09.369Z,61.89
2023-03-07T11:58:35.690Z,61.65
2023-03-07T12:01:02.017Z,60.22
2023-03-07T12:03:28.348Z,61.44
2023-03-07T12:05:54.714Z,61.07
2023-03-07T12:08:22.097Z,61.12
2023-03-07T12:10:48.413Z,61.20
2023-03-07T12:13:14.752Z,59.77
2023-03-07T12:15:41.091Z,59.86
2023-03-07T12:18:07.677Z,59.39
2023-03-07T12:20:34.033Z,59.76
2023-03-07T12:23:00.379Z,58.17
2023-03-07T12:25:26.770Z,58.97
2023-03-07T12:27:53.106Z,58.69
2023-03-07T12:30:19.534Z,58.00
2023-03-07T12:32:46.128Z,58.88
2023-03-07T12:35:12.512Z,58.12
2023-03-07T12:37:38.944Z,56.97
2023-03-07T12:40:05.421Z,56.32
2023-03-07T12:42:32.187Z,56.33
2023-03-07T12:44:58.494Z,56.13
2023-03-07T12:47:24.862Z,55.94
2023-03-07T12:49:51.226Z,55.86
2023-03-07T12:52:17.599Z,55.62
2023-03-07T12:54:44.263Z,54.86
2023-03-07T12:57:10.601Z,55.75
2023-03-07T12:59:37.297Z,54.16
2023-03-07T13:02:03.681Z,54.20
2023-03-07T13:04:30.052Z,54.28
2023-03-07T13:06:56.377Z,54.16
2023-03-07T13:09:22.712Z,53.42
2023-03-07T13:11:49.055Z,53.61
2023-03-07T13:14:15.391Z,55.79
2023-03-07T13:16:41.886Z,55.27
2023-03-07T13:19:08.281Z,56.12
2023-03-07T13:21:34.613Z,55.07
2023-03-07T13:24:01.085Z,55.07
2023-03-07T13:26:27.420Z,54.55
2023-03-07T13:28:53.814Z,54.25
2023-03-07T13:31:20.126Z,55.20
2023-03-07T13:33:48.118Z,54.64
2023-03-07T13:36:14.529Z,54.82
2023-03-07T13:38:40.834Z,54.23
2023-03-07T13:41:07.156Z,54.26
2023-03-07T13:43:35.323Z,54.38
2023-03-07T13:46:01.739Z,54.51
2023-03-07T13:48:28.294Z,53.83
2023-03-07T13:50:54.691Z,54.89
2023-03-07T13:53:21.002Z,53.78
2023-03-07T13:55:47.420Z,55.09
2023-03-07T13:58:13.756Z,53.37
2023-03-07T14:00:40.113Z,54.10
2023-03-07T14:03:06.452Z,54.99
2023-03-07T14:05:32.820Z,55.28
2023-03-07T14:07:59.162Z,55.30
2023-03-07T14:10:25.570Z,55.63
2023-03-07T14:12:52.178Z,56.39
2023-03-07T14:15:18.529Z,55.48
2023-03-07T14:17:44.917Z,55.06
2023-03-07T14:20:11.614Z,55.15
2023-03-07T14:22:37.916Z,55.83
2023-03-07T14:25:05.056Z,55.94
2023-03-07T14:27:31.429Z,55.91
2023-03-07T14:29:57.927Z,56.19
2023-03-07T14:32:24.369Z,56.26
2023-03-07T14:34:50.817Z,56.95
2023-03-07T14:37:17.148Z,57.30
2023-03-07T14:39:43.471Z,57.48
2023-03-07T14:42:09.796Z,58.01
2023-03-07T14:44:36.142Z,58.95
2023-03-07T14:47:02.552Z,60.39
2023-03-07T14:49:31.819Z,60.08
2023-03-07T14:51:58.178Z,60.13
2023-03-07T14:54:27.587Z,59.95
2023-03-07T14:56:55.167Z,59.68
2023-03-07T14:59:28.543Z,58.58
2023-03-07T15:01:55.824Z,58.88
2023-03-07T15:04:22.204Z,59.64
2023-03-07T15:06:48.610Z,58.65
2023-03-07T15:09:14.911Z,58.27
2023-03-07T15:11:41.234Z,58.49
2023-03-07T15:14:07.572Z,58.54
2023-03-07T15:16:34.482Z,57.58
2023-03-07T15:19:00.854Z,58.64
2023-03-07T15:21:27.185Z,57.69
2023-03-07T15:23:53.999Z,57.75
2023-03-07T15:26:21.526Z,58.70
2023-03-07T15:28:47.891Z,57.90
2023-03-07T15:31:15.454Z,58.15
2023-03-07T15:33:41.954Z,57.00
2023-03-07T15:36:08.315Z,56.92
2023-03-07T15:38:34.685Z,56.28
2023-03-07T15:41:00.998Z,57.24
2023-03-07T15:43:28.279Z,56.18
2023-03-07T15:45:54.688Z,56.98
2023-03-07T15:48:21.047Z,56.32
2023-03-07T15:50:47.386Z,56.01
2023-03-07T15:53:13.710Z,55.94
2023-03-07T15:55:40.119Z,56.88
2023-03-07T15:58:06.523Z,56.38
2023-03-07T16:00:32.982Z,56.39
2023-03-07T16:02:59.380Z,56.72
2023-03-07T16:05:25.744Z,57.01
2023-03-07T16:07:52.382Z,57.74
2023-03-07T16:10:18.718Z,57.97
2023-03-07T16:12:46.558Z,57.23
2023-03-07T16:15:12.913Z,57.39
2023-03-07T16:17:39.642Z,57.84
2023-03-07T16:20:05.964Z,56.94
2023-03-07T16:22:32.393Z,57.25
2023-03-07T16:24:58.725Z,57.33
2023-03-07T16:27:28.074Z,57.50
2023-03-07T16:29:54.588Z,57.53
2023-03-07T16:32:20.984Z,57.51
2023-03-07T16:34:48.869Z,57.89
2023-03-07T16:37:15.234Z,57.11
2023-03-07T16:39:41.617Z,56.76
2023-03-07T16:42:07.936Z,57.18
2023-03-07T16:44:34.270Z,56.39
2023-03-07T16:47:00.601Z,57.09
2023-03-07T16:49:26.960Z,57.75
2023-03-07T16:52:05.265Z,57.09
2023-03-07T16:54:32.593Z,56.93
2023-03-07T16:56:58.950Z,56.70
2023-03-07T16:59:25.263Z,57.02
2023-03-07T17:01:51.791Z,56.61
2023-03-07T17:04:18.163Z,56.50
2023-03-07T17:06:44.745Z,60.65
2023-03-07T17:09:11.681Z,65.70
2023-03-07T17:11:38.119Z,67.84
2023-03-07T17:14:04.418Z,68.81
2023-03-07T17:16:31.833Z,75.29
2023-03-07T17:18:59.169Z,77.71
2023-03-07T17:21:25.488Z,79.08
2023-03-07T17:23:51.792Z,81.67
2023-03-07T17:26:18.120Z,82.53
2023-03-07T17:28:44.464Z,84.92
2023-03-07T17:31:10.823Z,85.57
2023-03-07T17:33:37.225Z,87.79
2023-03-07T17:36:03.628Z,91.38
2023-03-07T17:38:29.990Z,93.72
2023-03-07T17:40:56.339Z,94.51
2023-03-07T17:43:22.725Z,94.77
2023-03-07T17:45:49.189Z,96.05
2023-03-07T17:48:16.224Z,96.51
2023-03-07T17:50:42.568Z,98.67
2023-03-07T17:53:08.915Z,100.00
2023-03-07T17:55:35.246Z,99.11
2023-03-07T17:58:01.586Z,100.00
2023-03-07T18:00:27.910Z,100.00
2023-03-07T18:02:54.284Z,100.00
2023-03-07T18:05:20.705Z,100.00
2023-03-07T18:07:47.228Z,100.00
2023-03-07T18:10:13.663Z,100.00
2023-03-07T18:12:40.930Z,100.00
2023-03-07T18:15:07.261Z,100.00
2023-03-07T18:17:47.228Z,100.00
2023-03-07T18:20:14.551Z,100.00
2023-03-07T18:22:40.906Z,100.00
2023-03-07T18:25:07.225Z,100.00
2023-03-07T18:27:33.589Z,100.00
2023-03-07T18:29:59.917Z,100.00
2023-03-07T18:32:28.349Z,100.00
2023-03-07T18:34:55.584Z,100.00
2023-03-07T18:37:21.900Z,100.00
2023-03-07T18:39:50.101Z,100.00
2023-03-07T18:42:16.454Z,100.00
2023-03-07T18:44:43.071Z,100.00
2023-03-07T18:47:10.720Z,100.00
2023-03-07T18:49:38.448Z,100.00
2023-03-07T18:52:04.838Z,100.00
2023-03-07T18:54:31.177Z,100.00
2023-03-07T18:56:57.540Z,100.00
2023-03-07T18:59:23.904Z,100.00
2023-03-07T19:01:50.402Z,100.00
2023-03-07T19:04:16.827Z,100.00
2023-03-07T19:06:45.183Z,100.00
2023-03-07T19:09:15.072Z,100.00
2023-03-07T19:11:41.439Z,100.00
2023-03-07T19:14:07.768Z,100.00
2023-03-07T19:16:34.174Z,100.00
2023-03-07T19:19:00.530Z,100.00
2023-03-07T19:21:26.859Z,100.00
2023-03-07T19:23:53.276Z,100.00
2023-03-07T19:26:19.634Z,100.00
2023-03-07T19:28:45.983Z,100.00
2023-03-07T19:31:12.321Z,100.00
2023-03-07T19:33:38.676Z,100.00
2023-03-07T19:36:05.051Z,100.00
2023-03-07T19:38:31.412Z,100.00
2023-03-07T19:40:59.149Z,100.00
2023-03-07T19:43:25.490Z,100.00
2023-03-07T19:45:53.506Z,100.00
2023-03-07T19:48:19.949Z,100.00
2023-03-07T19:50:46.546Z,99.55
2023-03-07T19:53:12.866Z,99.47
2023-03-07T19:55:39.192Z,100.00
2023-03-07T19:58:05.529Z,100.00
2023-03-07T20:00:31.937Z,100.00
2023-03-07T20:03:00.137Z,100.00
2023-03-07T20:05:26.480Z,99.27
2023-03-07T20:07:52.792Z,99.01
2023-03-07T20:10:19.501Z,98.52
2023-03-07T20:12:45.834Z,97.63
2023-03-07T20:15:12.981Z,98.50
2023-03-07T20:17:39.293Z,99.94
2023-03-07T20:20:08.025Z,100.00
2023-03-07T20:22:34.358Z,100.00
2023-03-07T20:25:00.665Z,100.00
2023-03-07T20:27:27.156Z,100.00
2023-03-07T20:29:53.508Z,100.00
2023-03-07T20:32:19.832Z,100.00
2023-03-07T20:34:46.236Z,100.00
2023-03-07T20:37:12.606Z,100.00
2023-03-07T20:39:39.218Z,100.00
2023-03-07T20:42:05.566Z,100.00
2023-03-07T20:44:31.901Z,100.00
2023-03-07T20:46:58.230Z,100.00
2023-03-07T20:49:24.556Z,100.00
2023-03-07T20:51:50.877Z,100.00
2023-03-07T20:54:17.253Z,100.00
2023-03-07T20:56:43.565Z,100.00
2023-03-07T20:59:10.121Z,100.00
2023-03-07T21:01:36.502Z,100.00
2023-03-07T21:04:08.146Z,100.00
2023-03-07T21:06:34.605Z,100.00
2023-03-07T21:09:00.981Z,100.00
2023-03-07T21:11:28.433Z,100.00
2023-03-07T21:13:54.757Z,100.00
2023-03-07T21:16:21.141Z,100.00
2023-03-07T21:18:47.547Z,100.00
2023-03-07T21:21:13.962Z,100.00
2023-03-07T21:23:40.492Z,100.00
2023-03-07T21:26:07.083Z,100.00
2023-03-07T21:28:33.500Z,100.00
2023-03-07T21:30:59.896Z,100.00
2023-03-07T21:33:26.240Z,100.00
2023-03-07T21:35:52.661Z,100.00
2023-03-07T21:38:18.993Z,100.00
2023-03-07T21:40:45.307Z,100.00
2023-03-07T21:43:11.618Z,100.00
2023-03-07T21:45:37.986Z,100.00
2023-03-07T21:48:04.355Z,100.00
2023-03-07T21:50:30.694Z,100.00
2023-03-07T21:52:57.096Z,100.00
2023-03-07T21:55:26.620Z,100.00
2023-03-07T21:57:53.039Z,100.00
2023-03-07T22:00:19.626Z,100.00
2023-03-07T22:02:45.974Z,100.00
2023-03-07T22:05:12.293Z,100.00
2023-03-07T22:07:38.611Z,100.00
2023-03-07T22:10:04.916Z,100.00
2023-03-07T22:12:31.249Z,100.00
2023-03-07T22:14:57.620Z,100.00
2023-03-07T22:17:23.945Z,100.00
2023-03-07T22:19:50.257Z,100.00
2023-03-07T22:22:16.565Z,100.00
2023-03-07T22:24:42.890Z,100.00
2023-03-07T22:27:09.216Z,100.00
2023-03-07T22:29:35.517Z,100.00
2023-03-07T22:32:01.923Z,100.00
2023-03-07T22:34:28.346Z,100.00
2023-03-07T22:36:56.333Z,100.00
2023-03-07T22:39:22.676Z,100.00
2023-03-07T22:41:48.994Z,100.00
2023-03-07T22:44:17.409Z,100.00
2023-03-07T22:46:45.070Z,100.00
2023-03-07T22:49:11.495Z,100.00
2023-03-07T22:51:38.008Z,100.00
2023-03-07T22:54:04.410Z,100.00
2023-03-07T22:56:30.752Z,100.00
2023-03-07T22:58:57.154Z,100.00
2023-03-07T23:01:23.526Z,100.00
2023-03-07T23:03:49.864Z,100.00
2023-03-07T23:06:16.178Z,100.00
2023-03-07T23:08:42.518Z,100.00
2023-03-07T23:11:09.066Z,100.00
2023-03-07T23:13:35.608Z,100.00
2023-03-07T23:16:01.970Z,100.00
2023-03-07T23:18:28.287Z,100.00
2023-03-07T23:20:54.600Z,100.00
2023-03-07T23:23:20.968Z,100.00
2023-03-07T23:25:47.553Z,100.00
2023-03-07T23:28:13.892Z,100.00
2023-03-07T23:30:40.435Z,100.00
2023-03-07T23:33:06.870Z,100.00
2023-03-07T23:35:33.253Z,100.00
2023-03-07T23:37:59.590Z,100.00
2023-03-07T23:40:25.915Z,100.00
2023-03-07T23:42:52.263Z,100.00
2023-03-07T23:45:20.583Z,100.00
2023-03-07T23:47:48.348Z,100.00
2023-03-07T23:50:14.658Z,100.00
2023-03-07T23:52:40.997Z,100.00
2023-03-07T23:55:10.564Z,100.00
2023-03-07T23:57:36.890Z,100.00
